Time;durP1;ratioP1;P1;durP2;ratioP2;P2;SDS_P1;SDS_P2;PMS_P1;PMS_P2;Temp;Humidity;BMP_temperature;BMP_pressure;BME280_temperature;BME280_humidity;BME280_pressure;Samples;Min_cycle;Max_cycle;Signal;HPM_P1;HPM_P2
2023/06/04 00:00:20;;;;;;;2.70;1.70;;;;;;;24.83;41.33;98461.08;109531;1252;59497;-85
2023/06/04 00:02:48;;;;;;;2.00;1.80;;;;;;;24.84;41.22;98462.34;106654;1253;73318;-87
2023/06/04 00:05:16;;;;;;;3.40;2.10;;;;;;;24.86;41.21;98462.49;105837;1255;71118;-87
2023/06/04 00:07:44;;;;;;;2.30;1.60;;;;;;;24.86;41.14;98456.20;106378;1254;71555;-86
2023/06/04 00:10:12;;;;;;;3.10;2.20;;;;;;;24.87;41.24;98457.73;105688;1260;62332;-86
2023/06/04 00:12:40;;;;;;;4.20;1.90;;;;;;;24.86;41.22;98453.42;105656;1254;60521;-85
2023/06/04 00:15:09;;;;;;;2.60;1.80;;;;;;;24.86;41.12;98454.72;105833;1254;73288;-87
2023/06/04 00:17:37;;;;;;;3.80;1.70;;;;;;;24.86;41.15;98452.79;105650;1254;67705;-87
2023/06/04 00:20:05;;;;;;;4.00;1.80;;;;;;;24.85;41.16;98450.70;105920;1252;72858;-87
2023/06/04 00:22:34;;;;;;;2.20;2.00;;;;;;;24.83;41.13;98449.96;107336;1254;60872;-88
2023/06/04 00:25:03;;;;;;;2.80;1.90;;;;;;;24.82;41.15;98449.77;108383;1253;60448;-87
2023/06/04 00:27:31;;;;;;;2.30;2.10;;;;;;;24.82;41.06;98452.19;106484;1254;73825;-87
2023/06/04 00:29:59;;;;;;;2.90;2.60;;;;;;;24.81;41.16;98452.60;105937;1259;67641;-87
2023/06/04 00:32:27;;;;;;;2.40;1.80;;;;;;;24.81;41.13;98449.23;105828;1257;72886;-86
2023/06/04 00:34:57;;;;;;;2.90;2.00;;;;;;;24.80;41.09;98448.16;105695;1254;60985;-87
2023/06/04 00:37:28;;;;;;;3.60;2.20;;;;;;;24.79;41.11;98442.48;105681;1254;60918;-86
2023/06/04 00:39:56;;;;;;;2.90;2.60;;;;;;;24.79;41.05;98441.24;106000;1259;73850;-87
2023/06/04 00:42:24;;;;;;;3.40;2.30;;;;;;;24.78;41.08;98439.34;105725;1262;67580;-87
2023/06/04 00:44:52;;;;;;;2.40;1.80;;;;;;;24.77;41.17;98430.89;105873;1257;72398;-87
2023/06/04 00:47:20;;;;;;;3.00;2.30;;;;;;;24.76;41.12;98427.32;105692;1260;60556;-87
2023/06/04 00:49:49;;;;;;;3.40;2.30;;;;;;;24.75;41.11;98423.98;105916;1254;60424;-88
2023/06/04 00:52:17;;;;;;;2.40;2.10;;;;;;;24.74;41.12;98425.88;105718;1254;72363;-87
2023/06/04 00:54:45;;;;;;;2.90;2.00;;;;;;;24.73;41.13;98420.54;105676;1260;69180;-87
2023/06/04 00:57:13;;;;;;;3.10;2.10;;;;;;;24.73;41.09;98412.21;105943;1258;71631;-88
2023/06/04 00:59:41;;;;;;;3.40;2.50;;;;;;;24.72;41.17;98416.88;105864;1253;60502;-87
2023/06/04 01:02:12;;;;;;;3.60;2.20;;;;;;;24.71;41.08;98412.74;105616;1257;60441;-84
2023/06/04 01:04:50;;;;;;;2.50;1.90;;;;;;;24.70;41.14;98410.66;105663;1254;74057;-85
2023/06/04 01:07:18;;;;;;;2.90;2.30;;;;;;;24.69;41.08;98407.11;105923;1259;67245;-87
2023/06/04 01:09:46;;;;;;;2.30;2.10;;;;;;;24.69;41.10;98402.79;105820;1254;73023;-84
2023/06/04 01:12:15;;;;;;;3.50;2.50;;;;;;;24.68;41.08;98403.42;105877;1254;228371;-87
2023/06/04 01:14:43;;;;;;;2.40;2.10;;;;;;;24.67;41.06;98405.23;105935;1254;60740;-87
2023/06/04 01:17:46;;;;;;;3.60;2.20;;;;;;;24.67;41.09;98407.98;106398;1254;72871;-87
2023/06/04 01:20:33;;;;;;;2.50;2.30;;;;;;;24.66;40.99;98417.38;105726;1257;67897;-88
2023/06/04 01:23:19;;;;;;;3.10;2.50;;;;;;;24.66;41.04;98418.77;105683;1257;72963;-88
2023/06/04 01:25:49;;;;;;;3.50;2.50;;;;;;;24.65;41.10;98420.67;105964;1255;60466;-86
2023/06/04 01:28:20;;;;;;;2.60;2.30;;;;;;;24.64;41.04;98418.56;105995;1257;60453;-88
2023/06/04 01:30:50;;;;;;;2.70;2.50;;;;;;;24.65;41.12;98419.45;105837;1255;76356;-87
2023/06/04 01:33:20;;;;;;;2.90;1.90;;;;;;;24.64;41.09;98418.08;105887;1255;69553;-88
2023/06/04 01:35:48;;;;;;;3.20;2.50;;;;;;;24.64;41.04;98417.58;105756;1259;74573;-87
2023/06/04 01:38:17;;;;;;;3.80;2.60;;;;;;;24.63;41.10;98417.07;105716;1262;60495;-87
2023/06/04 01:40:45;;;;;;;2.90;2.50;;;;;;;24.62;40.99;98418.28;105672;1252;62910;-88
2023/06/04 01:43:14;;;;;;;2.60;2.30;;;;;;;24.63;41.05;98418.80;106047;1252;75460;-86
2023/06/04 01:45:42;;;;;;;2.80;2.00;;;;;;;24.62;41.06;98417.91;106062;1263;68487;-88
2023/06/04 01:48:10;;;;;;;3.50;2.40;;;;;;;24.62;40.98;98415.61;106035;1254;72830;-86
2023/06/04 01:50:38;;;;;;;3.90;2.20;;;;;;;24.62;40.92;98415.96;105854;1262;60462;-88
2023/06/04 01:53:07;;;;;;;3.50;2.60;;;;;;;24.61;40.94;98419.02;105710;1254;62351;-88
2023/06/04 01:55:35;;;;;;;3.10;2.40;;;;;;;24.61;40.94;98418.81;105710;1255;74118;-87
2023/06/04 01:58:03;;;;;;;3.00;2.10;;;;;;;24.60;40.89;98418.02;105686;1260;68121;-88
2023/06/04 02:00:32;;;;;;;3.10;2.60;;;;;;;24.60;40.90;98417.89;105705;1254;72868;-86
2023/06/04 02:03:00;;;;;;;3.50;2.60;;;;;;;24.60;40.94;98413.88;105862;1259;60546;-87
2023/06/04 02:05:29;;;;;;;2.90;2.40;;;;;;;24.60;40.89;98419.53;106057;1254;60414;-86
2023/06/04 02:07:57;;;;;;;3.40;2.00;;;;;;;24.59;40.91;98419.40;105684;1254;72025;-88
2023/06/04 02:10:25;;;;;;;3.00;2.10;;;;;;;24.59;40.90;98414.29;105854;1257;69383;-87
2023/06/04 02:13:04;;;;;;;2.60;2.40;;;;;;;24.59;40.79;98415.63;105659;1254;73076;-87
2023/06/04 02:15:32;;;;;;;3.40;1.90;;;;;;;24.58;40.86;98411.14;105715;1254;60546;-88
2023/06/04 02:18:15;;;;;;;3.20;2.80;;;;;;;24.58;40.85;98413.54;105698;1257;60651;-88
2023/06/04 02:20:44;;;;;;;3.10;2.50;;;;;;;24.58;40.98;98410.59;106148;1260;74975;-87
2023/06/04 02:23:23;;;;;;;2.70;2.20;;;;;;;24.57;40.89;98405.80;106208;1252;67599;-87
2023/06/04 02:25:53;;;;;;;2.70;2.20;;;;;;;24.57;40.88;98406.20;109510;1254;71533;-89
2023/06/04 02:28:23;;;;;;;2.60;2.00;;;;;;;24.57;40.86;98408.21;109301;1253;60042;-85
2023/06/04 02:30:51;;;;;;;3.20;2.30;;;;;;;24.58;40.91;98408.39;107752;1257;60466;-88
2023/06/04 02:33:20;;;;;;;2.90;2.50;;;;;;;24.60;40.85;98407.88;105965;1252;73997;-86
2023/06/04 02:35:50;;;;;;;3.10;2.30;;;;;;;24.60;40.88;98406.30;105794;1254;69130;-86
2023/06/04 02:38:18;;;;;;;3.30;2.10;;;;;;;24.60;40.81;98409.02;105886;1254;72798;-87
2023/06/04 02:40:46;;;;;;;3.30;2.40;;;;;;;24.61;40.75;98408.63;105699;1254;60601;-87
2023/06/04 02:43:15;;;;;;;2.90;2.60;;;;;;;24.61;40.81;98409.10;105772;1262;60455;-87
2023/06/04 02:45:43;;;;;;;2.30;1.80;;;;;;;24.61;40.70;98405.84;105675;1254;75161;-87
2023/06/04 02:48:11;;;;;;;3.20;2.10;;;;;;;24.60;40.69;98405.20;105722;1262;68000;-87
2023/06/04 02:50:42;;;;;;;4.50;2.50;;;;;;;24.59;40.72;98405.32;105787;1260;71701;-87
2023/06/04 02:53:10;;;;;;;2.20;2.00;;;;;;;24.59;40.70;98410.85;105804;1260;60998;-87
2023/06/04 02:55:38;;;;;;;2.70;1.90;;;;;;;24.58;40.68;98412.41;105621;1262;60485;-87
2023/06/04 02:58:06;;;;;;;3.20;2.20;;;;;;;24.58;40.70;98416.11;105752;1253;73996;-87
2023/06/04 03:00:35;;;;;;;2.20;2.00;;;;;;;24.57;40.68;98420.46;105895;1254;68851;-87
2023/06/04 03:03:03;;;;;;;4.10;2.00;;;;;;;24.56;40.66;98419.41;108003;1254;72856;-87
2023/06/04 03:05:32;;;;;;;2.90;2.20;;;;;;;24.56;40.65;98414.18;107245;1260;61171;-88
2023/06/04 03:08:02;;;;;;;2.90;2.20;;;;;;;24.56;40.67;98417.60;105772;1255;60536;-86
2023/06/04 03:10:31;;;;;;;3.00;2.00;;;;;;;24.56;40.64;98420.38;105926;1259;74489;-86
2023/06/04 03:12:59;;;;;;;2.10;1.90;;;;;;;24.55;40.70;98421.17;105703;1260;69615;-87
2023/06/04 03:15:27;;;;;;;2.80;2.00;;;;;;;24.55;40.58;98421.36;105715;1259;71511;-87
2023/06/04 03:17:56;;;;;;;3.00;2.10;;;;;;;24.55;40.60;98423.55;105873;1254;60348;-87
2023/06/04 03:20:25;;;;;;;2.60;2.00;;;;;;;24.54;40.54;98419.02;105662;1260;60351;-86
2023/06/04 03:22:53;;;;;;;3.50;2.30;;;;;;;24.54;40.53;98419.60;105639;1259;71884;-87
2023/06/04 03:25:21;;;;;;;3.10;2.40;;;;;;;24.53;40.64;98422.64;105548;1260;68665;-87
2023/06/04 03:27:50;;;;;;;3.70;2.20;;;;;;;24.53;40.65;98421.20;105908;1255;71647;-88
2023/06/04 03:30:18;;;;;;;3.70;2.00;;;;;;;24.52;40.57;98425.67;105610;1254;60529;-88
2023/06/04 03:33:00;;;;;;;2.90;1.80;;;;;;;24.52;40.59;98427.15;105758;1262;60436;-87
2023/06/04 03:35:28;;;;;;;3.40;2.00;;;;;;;24.51;40.58;98421.77;105678;1253;73351;-84
2023/06/04 03:37:56;;;;;;;2.70;2.30;;;;;;;24.51;40.53;98422.73;105604;1262;67860;-87
2023/06/04 03:40:25;;;;;;;2.50;1.90;;;;;;;24.51;40.50;98424.04;105634;1261;72970;-87
2023/06/04 03:42:54;;;;;;;2.70;2.30;;;;;;;24.50;40.43;98428.70;105583;1260;60529;-88
2023/06/04 03:45:26;;;;;;;2.60;2.00;;;;;;;24.50;40.47;98424.38;105688;1260;60514;-87
2023/06/04 03:47:55;;;;;;;2.40;1.80;;;;;;;24.50;40.53;98420.73;105675;1254;72838;-87
2023/06/04 03:50:25;;;;;;;3.10;1.80;;;;;;;24.49;40.48;98415.67;105601;1263;67312;-87
2023/06/04 03:52:54;;;;;;;2.80;2.10;;;;;;;24.48;40.49;98423.69;105738;1262;72286;-86
2023/06/04 03:55:22;;;;;;;2.60;2.10;;;;;;;24.48;40.46;98426.42;105872;1254;60555;-86
2023/06/04 03:57:52;;;;;;;2.80;2.10;;;;;;;24.48;40.45;98424.05;106038;1254;60376;-86
2023/06/04 04:00:21;;;;;;;2.50;2.30;;;;;;;24.48;40.60;98428.66;106011;1255;74295;-87
2023/06/04 04:02:49;;;;;;;2.30;1.80;;;;;;;24.48;40.47;98424.65;105768;1258;67538;-86
2023/06/04 04:05:22;;;;;;;3.10;2.50;;;;;;;24.48;40.46;98424.81;105862;1259;73020;-86
2023/06/04 04:07:50;;;;;;;2.30;2.10;;;;;;;24.47;40.43;98426.55;105641;1262;60446;-86
2023/06/04 04:10:21;;;;;;;2.70;2.50;;;;;;;24.47;40.58;98427.61;105868;1253;60413;-87
2023/06/04 04:12:51;;;;;;;4.10;2.30;;;;;;;24.47;40.54;98426.51;106050;1261;72662;-87
2023/06/04 04:15:20;;;;;;;3.10;2.00;;;;;;;24.47;40.45;98426.03;105670;1255;69911;-87
2023/06/04 04:17:48;;;;;;;2.50;2.00;;;;;;;24.47;40.40;98426.55;105621;1260;71604;-87
2023/06/04 04:20:18;;;;;;;2.60;1.90;;;;;;;24.47;40.52;98426.79;105672;1262;61006;-87
2023/06/04 04:22:59;;;;;;;2.60;2.30;;;;;;;24.46;40.55;98427.92;105675;1257;60855;-87
2023/06/04 04:25:28;;;;;;;3.30;2.30;;;;;;;24.46;40.51;98424.80;105627;1263;73562;-87
2023/06/04 04:28:00;;;;;;;2.50;1.90;;;;;;;24.46;40.52;98416.27;105630;1261;68094;-89
2023/06/04 04:30:28;;;;;;;3.90;2.60;;;;;;;24.46;40.48;98418.84;105671;1259;72427;-87
2023/06/04 04:32:57;;;;;;;2.60;1.90;;;;;;;24.46;40.50;98420.32;105741;1254;60523;-88
2023/06/04 04:35:32;;;;;;;2.90;2.20;;;;;;;24.46;40.47;98414.79;105783;1257;60361;-87
2023/06/04 04:38:04;;;;;;;2.70;2.40;;;;;;;24.46;40.53;98410.09;105767;1260;74649;-86
2023/06/04 04:40:37;;;;;;;2.20;2.00;;;;;;;24.45;40.52;98405.58;105775;1260;67861;-87
2023/06/04 04:43:06;;;;;;;2.60;1.90;;;;;;;24.45;40.41;98405.94;105794;1255;71380;-87
2023/06/04 04:45:35;;;;;;;2.40;1.90;;;;;;;24.45;40.48;98409.76;106203;1262;60462;-88
2023/06/04 04:48:05;;;;;;;3.00;2.40;;;;;;;24.45;40.50;98409.12;108612;1254;58854;-86
2023/06/04 04:50:33;;;;;;;2.00;1.80;;;;;;;24.45;40.44;98411.44;109246;1254;74985;-86
2023/06/04 04:53:02;;;;;;;2.30;2.00;;;;;;;24.46;40.42;98404.02;109627;1253;67466;-85
2023/06/04 04:55:30;;;;;;;2.10;1.90;;;;;;;24.46;40.39;98405.22;109433;1253;73838;-85
2023/06/04 04:57:58;;;;;;;2.20;1.80;;;;;;;24.48;40.38;98404.16;107010;1254;60360;-87
2023/06/04 05:00:28;;;;;;;2.30;1.70;;;;;;;24.49;40.36;98397.16;105802;1254;60479;-86
2023/06/04 05:02:56;;;;;;;3.60;2.10;;;;;;;24.51;40.40;98397.36;105862;1254;74230;-87
2023/06/04 05:05:25;;;;;;;3.40;2.10;;;;;;;24.51;40.36;98400.35;105693;1260;69177;-87
2023/06/04 05:07:54;;;;;;;3.00;2.10;;;;;;;24.51;40.32;98400.40;108083;1253;73337;-85
2023/06/04 05:10:30;;;;;;;2.30;1.50;;;;;;;24.52;40.28;98404.67;109355;1253;58850;-86
2023/06/04 05:13:00;;;;;;;4.20;2.30;;;;;;;24.52;40.25;98401.59;109357;1253;59413;-88
2023/06/04 05:15:36;;;;;;;2.30;1.80;;;;;;;24.53;40.30;98400.52;106049;1254;73323;-88
2023/06/04 05:18:04;;;;;;;3.20;2.50;;;;;;;24.54;40.22;98396.58;107152;1260;69987;-87
2023/06/04 05:20:37;;;;;;;1.90;1.70;;;;;;;24.54;40.13;98391.95;106747;1256;72754;-87
2023/06/04 05:23:08;;;;;;;2.80;2.00;;;;;;;24.55;40.32;98387.84;106178;1261;60645;-88
2023/06/04 05:25:37;;;;;;;2.50;1.60;;;;;;;24.56;40.25;98386.89;106235;1254;60594;-88
2023/06/04 05:28:06;;;;;;;1.80;1.70;;;;;;;24.56;40.26;98387.23;106015;1259;73816;-85
2023/06/04 05:30:35;;;;;;;2.00;1.60;;;;;;;24.56;40.20;98388.16;105729;1263;69471;-89
2023/06/04 05:33:03;;;;;;;2.70;2.10;;;;;;;24.55;40.33;98388.62;105737;1260;72905;-86
2023/06/04 05:35:32;;;;;;;2.00;1.70;;;;;;;24.54;40.30;98390.33;105987;1254;60523;-87
2023/06/04 05:38:00;;;;;;;2.10;1.70;;;;;;;24.54;40.33;98388.34;105911;1254;60690;-87
2023/06/04 05:40:29;;;;;;;2.20;1.60;;;;;;;24.53;40.34;98392.98;105899;1260;74495;-88
2023/06/04 05:42:57;;;;;;;2.10;1.90;;;;;;;24.52;40.26;98394.83;105894;1259;67386;-87
2023/06/04 05:45:25;;;;;;;2.50;2.00;;;;;;;24.52;40.34;98394.83;105803;1253;71682;-88
2023/06/04 05:47:54;;;;;;;2.40;2.10;;;;;;;24.50;40.40;98390.10;106010;1254;60606;-88
2023/06/04 05:50:24;;;;;;;3.20;2.00;;;;;;;24.50;40.34;98396.92;105768;1258;60642;-88
2023/06/04 05:52:52;;;;;;;2.80;1.70;;;;;;;24.49;40.46;98392.06;105978;1254;72360;-87
2023/06/04 05:55:21;;;;;;;2.50;2.00;;;;;;;24.48;40.41;98390.86;105724;1260;71084;-85
2023/06/04 05:57:53;;;;;;;2.70;1.70;;;;;;;24.48;40.52;98393.27;105863;1257;71037;-87
2023/06/04 06:00:22;;;;;;;2.90;1.90;;;;;;;24.47;40.41;98399.77;105723;1260;60518;-87
2023/06/04 06:02:50;;;;;;;2.50;2.10;;;;;;;24.46;40.53;98395.36;106120;1257;62518;-86
2023/06/04 06:05:28;;;;;;;2.40;2.00;;;;;;;24.46;40.45;98400.89;106795;1260;76100;-87
2023/06/04 06:07:56;;;;;;;2.60;1.90;;;;;;;24.46;40.51;98402.02;106580;1260;70540;-86
2023/06/04 06:10:25;;;;;;;4.50;1.90;;;;;;;24.46;40.50;98404.02;106677;1254;71899;-86
2023/06/04 06:12:53;;;;;;;2.30;1.90;;;;;;;24.46;40.53;98406.38;106419;1254;60492;-87
2023/06/04 06:15:21;;;;;;;3.00;1.90;;;;;;;24.46;40.53;98407.69;106119;1254;60384;-89
2023/06/04 06:17:51;;;;;;;2.00;1.60;;;;;;;24.46;40.67;98411.49;105741;1257;75262;-88
2023/06/04 06:20:20;;;;;;;1.80;1.60;;;;;;;24.46;40.65;98413.52;105850;1253;67464;-86
2023/06/04 06:22:48;;;;;;;2.80;2.00;;;;;;;24.46;40.63;98414.45;106777;1254;73414;-87
2023/06/04 06:25:20;;;;;;;1.90;1.70;;;;;;;24.46;40.57;98414.11;108226;1254;60464;-88
2023/06/04 06:27:54;;;;;;;2.20;1.60;;;;;;;24.46;40.53;98413.70;107806;1258;59054;-89
2023/06/04 06:30:23;;;;;;;2.20;1.90;;;;;;;24.46;40.65;98415.72;106912;1254;73781;-88
2023/06/04 06:32:53;;;;;;;5.30;2.20;;;;;;;24.47;40.59;98416.19;106186;1255;69535;-87
2023/06/04 06:35:23;;;;;;;2.40;1.70;;;;;;;24.47;40.69;98414.34;106016;1254;72794;-87
2023/06/04 06:37:51;;;;;;;2.60;2.20;;;;;;;24.47;40.60;98414.42;105771;1254;60463;-88
2023/06/04 06:40:19;;;;;;;3.10;1.80;;;;;;;24.47;40.59;98410.28;106203;1254;60498;-88
2023/06/04 06:42:49;;;;;;;2.50;1.90;;;;;;;24.47;40.68;98409.32;106450;1254;73334;-87
2023/06/04 06:45:18;;;;;;;1.80;1.60;;;;;;;24.47;40.69;98410.80;105784;1262;69047;-88
2023/06/04 06:47:47;;;;;;;2.60;1.80;;;;;;;24.47;40.63;98411.18;105882;1260;71733;-88
2023/06/04 06:50:15;;;;;;;1.90;1.60;;;;;;;24.47;40.62;98411.51;105673;1257;60869;-88
2023/06/04 06:52:43;;;;;;;2.80;2.30;;;;;;;24.47;40.61;98406.31;105815;1259;60342;-87
2023/06/04 06:55:11;;;;;;;2.40;1.90;;;;;;;24.46;40.81;98405.59;105731;1261;73998;-88
2023/06/04 06:57:40;;;;;;;2.90;1.70;;;;;;;24.46;40.70;98404.95;105783;1260;67887;-88
2023/06/04 07:00:09;;;;;;;2.50;1.60;;;;;;;24.46;40.80;98408.77;106081;1257;74048;-87
2023/06/04 07:02:37;;;;;;;1.80;1.60;;;;;;;24.45;40.73;98412.54;105974;1259;60443;-87
2023/06/04 07:05:06;;;;;;;3.00;2.00;;;;;;;24.45;40.79;98414.17;105836;1261;60352;-87
2023/06/04 07:07:34;;;;;;;2.20;1.70;;;;;;;24.44;40.79;98411.40;105928;1254;74514;-90
2023/06/04 07:10:03;;;;;;;2.00;1.30;;;;;;;24.44;40.77;98410.33;105765;1254;68993;-88
2023/06/04 07:12:31;;;;;;;2.20;1.60;;;;;;;24.43;40.86;98407.26;105953;1254;71459;-88
2023/06/04 07:15:00;;;;;;;2.50;2.00;;;;;;;24.43;40.87;98409.36;106779;1254;61569;-89
2023/06/04 07:17:28;;;;;;;2.30;1.80;;;;;;;24.43;40.86;98413.54;106225;1260;60347;-87
2023/06/04 07:19:56;;;;;;;1.90;1.70;;;;;;;24.43;40.80;98416.14;105953;1260;74159;-87
2023/06/04 07:22:24;;;;;;;1.70;1.40;;;;;;;24.43;40.86;98416.29;106116;1259;68657;-88
2023/06/04 07:24:53;;;;;;;1.70;1.60;;;;;;;24.43;40.81;98413.02;105783;1253;72623;-88
2023/06/04 07:27:22;;;;;;;2.10;1.70;;;;;;;24.43;40.86;98415.35;105909;1254;60520;-88
2023/06/04 07:29:50;;;;;;;2.40;2.00;;;;;;;24.43;40.88;98415.94;105820;1254;60312;-88
2023/06/04 07:32:18;;;;;;;1.80;1.70;;;;;;;24.42;40.93;98419.30;105815;1253;73094;-86
2023/06/04 07:34:46;;;;;;;2.20;2.00;;;;;;;24.42;40.91;98418.02;105942;1254;68247;-87
2023/06/04 07:37:15;;;;;;;2.10;1.80;;;;;;;24.42;40.91;98416.90;106026;1254;71897;-88
2023/06/04 07:39:43;;;;;;;2.00;1.70;;;;;;;24.42;40.88;98421.33;105916;1257;60908;-88
2023/06/04 07:42:13;;;;;;;1.60;1.50;;;;;;;24.42;40.90;98421.20;105965;1254;60340;-90
2023/06/04 07:44:43;;;;;;;2.40;1.80;;;;;;;24.42;40.88;98423.36;106170;1254;72483;-88
2023/06/04 07:47:11;;;;;;;1.80;1.60;;;;;;;24.41;40.95;98423.98;106138;1254;69117;-88
2023/06/04 07:49:39;;;;;;;2.70;1.90;;;;;;;24.41;40.97;98419.77;108642;1254;72796;-85
2023/06/04 07:52:26;;;;;;;2.40;2.10;;;;;;;24.41;40.93;98422.02;109396;1253;61466;-85
2023/06/04 07:54:55;;;;;;;2.10;1.70;;;;;;;24.43;41.03;98421.13;108859;1254;59102;-87
2023/06/04 07:57:24;;;;;;;2.20;1.70;;;;;;;24.43;41.01;98423.17;106305;1259;74493;-87
2023/06/04 07:59:52;;;;;;;1.80;1.60;;;;;;;24.44;41.04;98426.73;106103;1259;69599;-87
2023/06/04 08:02:20;;;;;;;2.00;1.60;;;;;;;24.45;40.91;98424.83;106064;1254;72139;-89
2023/06/04 08:04:49;;;;;;;2.80;1.70;;;;;;;24.46;41.02;98430.58;106015;1254;60424;-87
2023/06/04 08:07:17;;;;;;;1.80;1.50;;;;;;;24.46;41.00;98429.65;106141;1254;60365;-88
2023/06/04 08:09:46;;;;;;;1.70;1.60;;;;;;;24.46;40.92;98433.45;106180;1258;74265;-87
2023/06/04 08:12:15;;;;;;;2.60;1.90;;;;;;;24.46;40.91;98429.95;105985;1261;68995;-87
2023/06/04 08:14:45;;;;;;;2.00;1.50;;;;;;;24.46;40.94;98429.96;106134;1254;72822;-87
2023/06/04 08:17:13;;;;;;;2.80;1.60;;;;;;;24.46;40.99;98427.98;105969;1256;60489;-87
2023/06/04 08:19:41;;;;;;;2.20;1.70;;;;;;;24.45;40.96;98422.05;106026;1254;60601;-87
2023/06/04 08:22:11;;;;;;;2.00;1.40;;;;;;;24.45;40.94;98426.42;105951;1253;73948;-87
2023/06/04 08:24:39;;;;;;;1.90;1.50;;;;;;;24.45;40.94;98427.38;105739;1254;69650;-88
2023/06/04 08:27:08;;;;;;;3.10;1.80;;;;;;;24.44;40.96;98427.86;105931;1260;71404;-89
2023/06/04 08:29:36;;;;;;;2.70;2.20;;;;;;;24.44;40.99;98421.86;106226;1254;60553;-87
2023/06/04 08:32:07;;;;;;;2.20;1.50;;;;;;;24.43;40.99;98423.02;106170;1254;61471;-86
2023/06/04 08:34:35;;;;;;;2.00;1.80;;;;;;;24.43;41.00;98432.71;105960;1254;74191;-88
2023/06/04 08:37:04;;;;;;;1.80;1.30;;;;;;;24.43;40.99;98434.39;105866;1255;69527;-86
2023/06/04 08:39:33;;;;;;;2.00;1.60;;;;;;;24.43;41.08;98429.45;106134;1254;72197;-88
2023/06/04 08:42:04;;;;;;;2.40;2.00;;;;;;;24.43;41.08;98434.05;106182;1253;60480;-89
2023/06/04 08:44:32;;;;;;;2.50;1.40;;;;;;;24.43;40.99;98433.89;106254;1253;60608;-88
2023/06/04 08:47:05;;;;;;;2.20;1.50;;;;;;;24.42;41.10;98434.14;105828;1258;72643;-85
2023/06/04 08:49:36;;;;;;;2.00;1.90;;;;;;;24.43;41.10;98435.70;106144;1259;67943;-88
2023/06/04 08:52:06;;;;;;;2.00;1.70;;;;;;;24.42;41.17;98436.15;106076;1254;73438;-88
2023/06/04 08:54:34;;;;;;;1.70;1.60;;;;;;;24.42;41.12;98431.09;106523;1254;59856;-88
2023/06/04 08:57:02;;;;;;;2.40;2.20;;;;;;;24.41;41.12;98429.09;106348;1253;60552;-87
2023/06/04 08:59:30;;;;;;;2.80;2.10;;;;;;;24.41;41.11;98429.15;106070;1254;74153;-88
2023/06/04 09:01:59;;;;;;;2.20;1.60;;;;;;;24.41;41.18;98427.70;106272;1254;67801;-88
2023/06/04 09:04:27;;;;;;;2.20;1.90;;;;;;;24.42;41.29;98424.16;106470;1254;71957;-87
2023/06/04 09:06:55;;;;;;;1.80;1.70;;;;;;;24.41;41.21;98426.57;106197;1262;60497;-88
2023/06/04 09:09:25;;;;;;;2.40;2.20;;;;;;;24.41;41.13;98421.67;106130;1257;60494;-88
2023/06/04 09:11:56;;;;;;;2.50;2.10;;;;;;;24.41;41.21;98424.08;106448;1254;73064;-87
2023/06/04 09:14:25;;;;;;;1.90;1.70;;;;;;;24.41;41.19;98428.77;106613;1254;69515;-88
2023/06/04 09:16:55;;;;;;;2.40;2.00;;;;;;;24.41;41.19;98427.88;106476;1254;71871;-88
2023/06/04 09:19:23;;;;;;;1.80;1.50;;;;;;;24.41;41.16;98427.67;106860;1256;61797;-87
2023/06/04 09:21:54;;;;;;;2.10;1.70;;;;;;;24.42;41.21;98428.89;105863;1254;60826;-88
2023/06/04 09:24:24;;;;;;;1.80;1.50;;;;;;;24.42;41.20;98437.29;106225;1253;75519;-88
2023/06/04 09:26:52;;;;;;;2.80;1.90;;;;;;;24.42;41.20;98437.25;106358;1254;69080;-88
2023/06/04 09:29:20;;;;;;;3.00;2.10;;;;;;;24.42;41.26;98437.64;106093;1254;72743;-88
2023/06/04 09:31:57;;;;;;;2.00;1.70;;;;;;;24.42;41.23;98437.09;105777;1254;61455;-89
2023/06/04 09:34:29;;;;;;;2.50;1.70;;;;;;;24.42;41.22;98438.48;106214;1254;62022;-89
2023/06/04 09:36:57;;;;;;;2.30;1.60;;;;;;;24.42;41.23;98440.41;106207;1254;74631;-89
2023/06/04 09:39:27;;;;;;;2.40;1.70;;;;;;;24.42;41.29;98434.55;106358;1254;69143;-87
2023/06/04 09:42:00;;;;;;;1.80;1.60;;;;;;;24.42;41.31;98438.17;105929;1254;72834;-85
2023/06/04 09:44:29;;;;;;;1.90;1.70;;;;;;;24.41;41.32;98433.15;106188;1254;62742;-88
2023/06/04 09:46:57;;;;;;;2.30;1.80;;;;;;;24.42;41.36;98430.38;106268;1254;60434;-89
2023/06/04 09:49:26;;;;;;;1.90;1.80;;;;;;;24.41;41.33;98429.48;106042;1254;74148;-87
2023/06/04 09:51:54;;;;;;;2.30;1.70;;;;;;;24.42;41.29;98427.97;106155;1253;69713;-90
2023/06/04 09:54:22;;;;;;;2.00;1.90;;;;;;;24.41;41.32;98426.19;106587;1256;71568;-89
2023/06/04 09:56:50;;;;;;;1.70;1.50;;;;;;;24.41;41.30;98420.95;106386;1254;62477;-88
2023/06/04 09:59:18;;;;;;;2.20;1.70;;;;;;;24.41;41.30;98421.88;106366;1254;60433;-88
2023/06/04 10:01:46;;;;;;;2.40;1.70;;;;;;;24.41;41.34;98417.29;106156;1254;74342;-89
2023/06/04 10:04:15;;;;;;;1.60;1.30;;;;;;;24.41;41.32;98417.15;106273;1254;67769;-87
2023/06/04 10:06:43;;;;;;;1.90;1.60;;;;;;;24.41;41.36;98414.20;106594;1254;72056;-88
2023/06/04 10:09:11;;;;;;;1.50;1.30;;;;;;;24.40;41.44;98415.37;108716;1253;59264;-88
2023/06/04 10:11:50;;;;;;;3.60;1.90;;;;;;;24.41;41.39;98412.55;109193;1253;61045;-86
2023/06/04 10:14:27;;;;;;;1.80;1.70;;;;;;;24.42;41.37;98408.58;109537;1252;72835;-89
2023/06/04 10:16:56;;;;;;;3.00;1.90;;;;;;;24.43;41.27;98407.70;109562;1253;70264;-86
2023/06/04 10:19:24;;;;;;;1.90;1.70;;;;;;;24.44;41.36;98407.92;108814;1254;71446;-87
2023/06/04 10:21:52;;;;;;;2.20;1.80;;;;;;;24.45;41.32;98405.73;106195;1254;60450;-88
2023/06/04 10:24:22;;;;;;;1.90;1.70;;;;;;;24.47;41.32;98407.41;105976;1254;60514;-89
2023/06/04 10:26:51;;;;;;;2.30;1.80;;;;;;;24.48;41.37;98404.92;106166;1254;74514;-88
2023/06/04 10:29:19;;;;;;;2.00;1.50;;;;;;;24.48;41.28;98400.84;108560;1254;70174;-87
2023/06/04 10:31:47;;;;;;;1.80;1.60;;;;;;;24.48;41.35;98402.61;109396;1253;74142;-86
2023/06/04 10:34:16;;;;;;;2.10;1.70;;;;;;;24.48;41.25;98399.81;109307;1254;60841;-86
2023/06/04 10:36:45;;;;;;;1.90;1.50;;;;;;;24.50;41.26;98398.23;106485;1254;60431;-86
2023/06/04 10:39:13;;;;;;;4.20;1.80;;;;;;;24.51;41.21;98400.09;106402;1254;76586;-88
2023/06/04 10:41:43;;;;;;;2.00;1.40;;;;;;;24.51;41.18;98396.98;106429;1254;69029;-87
2023/06/04 10:44:12;;;;;;;1.30;1.20;;;;;;;24.51;41.31;98394.58;106365;1254;71814;-88
2023/06/04 10:46:41;;;;;;;2.00;1.80;;;;;;;24.51;41.27;98391.83;106141;1253;60604;-87
2023/06/04 10:49:14;;;;;;;1.80;1.60;;;;;;;24.50;41.26;98397.59;106041;1254;60709;-88
2023/06/04 10:51:43;;;;;;;2.60;1.60;;;;;;;24.51;41.27;98390.77;106357;1259;73868;-88
2023/06/04 10:54:23;;;;;;;1.50;1.40;;;;;;;24.50;41.22;98392.88;106196;1254;69155;-87
2023/06/04 10:56:54;;;;;;;1.90;1.70;;;;;;;24.49;41.21;98392.98;106762;1260;74104;-87
2023/06/04 10:59:24;;;;;;;2.20;1.80;;;;;;;24.48;41.35;98387.02;107969;1254;61683;-86
2023/06/04 11:02:03;;;;;;;2.20;1.60;;;;;;;24.48;41.31;98382.08;108057;1253;60438;-88
2023/06/04 11:04:31;;;;;;;1.60;1.40;;;;;;;24.49;41.32;98376.92;107058;1254;74472;-89
2023/06/04 11:07:09;;;;;;;2.00;1.80;;;;;;;24.47;41.33;98378.74;106261;1254;69672;-89
2023/06/04 11:09:47;;;;;;;1.70;1.60;;;;;;;24.49;41.32;98378.02;106181;1259;73332;-86
2023/06/04 11:12:15;;;;;;;1.80;1.50;;;;;;;24.48;41.35;98374.95;106058;1254;60994;-89
2023/06/04 11:14:56;;;;;;;1.70;1.40;;;;;;;24.48;41.34;98375.74;106128;1253;60587;-86
2023/06/04 11:17:25;;;;;;;1.40;1.30;;;;;;;24.48;41.40;98376.84;105992;1262;74380;-87
2023/06/04 11:19:55;;;;;;;1.70;1.50;;;;;;;24.47;41.33;98377.65;106102;1259;67928;-88
2023/06/04 11:22:24;;;;;;;1.80;1.60;;;;;;;24.47;41.37;98377.80;106487;1254;71874;-88
2023/06/04 11:24:58;;;;;;;1.90;1.70;;;;;;;24.46;41.38;98377.41;106142;1254;60572;-87
2023/06/04 11:27:28;;;;;;;2.40;1.80;;;;;;;24.47;41.40;98383.96;106138;1254;60437;-89
2023/06/04 11:30:08;;;;;;;1.90;1.50;;;;;;;24.46;41.44;98377.46;105929;1253;72048;-88
2023/06/04 11:32:36;;;;;;;1.50;1.40;;;;;;;24.46;41.44;98378.00;106149;1256;68399;-88
2023/06/04 11:35:08;;;;;;;1.80;1.70;;;;;;;24.46;41.41;98380.23;105901;1254;72170;-87